Kynouria — V7VY6 — position and weather

sailwx.info

Track history (hours):
 
Tides and Currents Weather Stations Pressure Air Temp Water Temp Dewpoint Dewpoint Depression Visibility Wind Speed Wind Dir Waves Ship Positions

Kynouria

Last reported at 2015-Jul-28 03:04 UTC. Time now 2015-Jul-29 13:36 UTC.
Position N 32°46' E 124°16'.

Length 229 m; draft 13.8 m.

Type: Cargo ship. MMSI: 538004243.

Date/timePositionNaut miles runAvg speedWind from/ knotsBaromVisibWave heightAir tempDewpointWater temp
2015-Jul-28 03:04N 32°46' E 124°16'610.7
2015-Jul-28 02:33N 32°40' E 124°15'1410.9
2015-Jul-28 01:17N 32°27' E 124°13'811.1
2015-Jul-28 00:33N 32°19' E 124°12'1111.3
2015-Jul-27 23:33N 32°07' E 124°10'1111.2
2015-Jul-27 22:33N 31°56' E 124°09'1111.1
2015-Jul-27 21:33N 31°45' E 124°07'1110.7
2015-Jul-27 20:33N 31°35' E 124°05'1010.1
2015-Jul-27 19:33N 31°25' E 124°04'1010.0
2015-Jul-27 18:33N 31°15' E 124°02'1010.1
2015-Jul-27 17:33N 31°05' E 124°01'1010.0
2015-Jul-27 16:33N 30°55' E 123°57'1110.6
2015-Jul-27 15:33N 30°45' E 123°52'1010.5
2015-Jul-27 14:33N 30°36' E 123°46'1110.7
2015-Jul-27 13:33N 30°27' E 123°39'1110.5
2015-Jul-27 12:33N 30°17' E 123°35'1110.6
2015-Jul-27 11:33N 30°08' E 123°29'1110.8
2015-Jul-27 10:33N 29°58' E 123°24'1010.6
2015-Jul-27 09:33N 29°49' E 123°18'1110.4
2015-Jul-27 08:32N 29°39' E 123°13'1010.4
2015-Jul-27 07:32N 29°30' E 123°08'1110.6
2015-Jul-27 06:29N 29°20' E 123°02'29211.2
2015-Jul-26 04:32N 25°00' E 120°32'1211.9
2015-Jul-26 03:33N 24°50' E 120°26'  
2015-Jul-19 21:25N 01°16' E 104°11'1112.4
2015-Jul-19 20:33N 01°15' E 104°00'5 4.4
2015-Jul-19 19:31N 01°17' E 103°56'0 0.0
2015-Jul-19 18:31N 01°17' E 103°56'0 0.2
2015-Jul-19 17:31N 01°17' E 103°56'0 0.1
2015-Jul-19 16:19N 01°17' E 103°56'0 0.0
2015-Jul-19 15:31N 01°17' E 103°56'0 0.0
2015-Jul-19 14:31N 01°17' E 103°56'0 0.0
2015-Jul-19 13:31N 01°17' E 103°56'0 0.0
2015-Jul-19 12:31N 01°17' E 103°56'0 0.0
2015-Jul-19 11:31N 01°17' E 103°56'0 0.1
2015-Jul-19 10:31N 01°17' E 103°56'0 0.1
2015-Jul-19 09:31N 01°17' E 103°56'0 0.0
2015-Jul-19 08:31N 01°17' E 103°56'0 0.1
2015-Jul-19 07:33N 01°17' E 103°56'0 0.1
2015-Jul-19 06:32N 01°17' E 103°57'2 1.5
2015-Jul-19 05:33N 01°16' E 103°57'6 6.1
2015-Jul-19 04:33N 01°12' E 103°53'141 8.7
2015-Jul-18 12:25N 02°16' E 101°47'1412.0
2015-Jul-18 11:13N 02°25' E 101°36'711.3
2015-Jul-18 10:34N 02°30' E 101°30'2211.0
2015-Jul-18 08:33N 02°42' E 101°11'2010.1
2015-Jul-18 06:34N 02°50' E 100°53'28 9.2
2015-Jul-18 03:34N 03°08' E 100°32'  
Track history (hours):
 
Tides and Currents Weather Stations Pressure Air Temp Water Temp Dewpoint Dewpoint Depression Visibility Wind Speed Wind Dir Waves Ship Positions

Kynouria

Last reported at 2015-Jul-28 03:04 UTC. Time now 2015-Jul-29 13:36 UTC.
Position N 32°46' E 124°16'.

Length 229 m; draft 13.8 m.

Type: Cargo ship. MMSI: 538004243.

Date/timePositionNaut miles runAvg speedWind from/ knotsBaromVisibWave heightAir tempDewpointWater temp
2015-Jul-28 03:04N 32°46' E 124°16'610.7
2015-Jul-28 02:33N 32°40' E 124°15'1410.9
2015-Jul-28 01:17N 32°27' E 124°13'811.1
2015-Jul-28 00:33N 32°19' E 124°12'1111.3
2015-Jul-27 23:33N 32°07' E 124°10'1111.2
2015-Jul-27 22:33N 31°56' E 124°09'1111.1
2015-Jul-27 21:33N 31°45' E 124°07'1110.7
2015-Jul-27 20:33N 31°35' E 124°05'1010.1
2015-Jul-27 19:33N 31°25' E 124°04'1010.0
2015-Jul-27 18:33N 31°15' E 124°02'1010.1
2015-Jul-27 17:33N 31°05' E 124°01'1010.0
2015-Jul-27 16:33N 30°55' E 123°57'1110.6
2015-Jul-27 15:33N 30°45' E 123°52'1010.5
2015-Jul-27 14:33N 30°36' E 123°46'1110.7
2015-Jul-27 13:33N 30°27' E 123°39'1110.5
2015-Jul-27 12:33N 30°17' E 123°35'1110.6
2015-Jul-27 11:33N 30°08' E 123°29'1110.8
2015-Jul-27 10:33N 29°58' E 123°24'1010.6
2015-Jul-27 09:33N 29°49' E 123°18'1110.4
2015-Jul-27 08:32N 29°39' E 123°13'1010.4
2015-Jul-27 07:32N 29°30' E 123°08'1110.6
2015-Jul-27 06:29N 29°20' E 123°02'29211.2
2015-Jul-26 04:32N 25°00' E 120°32'1211.9
2015-Jul-26 03:33N 24°50' E 120°26'  
2015-Jul-19 21:25N 01°16' E 104°11'1112.4
2015-Jul-19 20:33N 01°15' E 104°00'5 4.4
2015-Jul-19 19:31N 01°17' E 103°56'0 0.0
2015-Jul-19 18:31N 01°17' E 103°56'0 0.2
2015-Jul-19 17:31N 01°17' E 103°56'0 0.1
2015-Jul-19 16:19N 01°17' E 103°56'0 0.0
2015-Jul-19 15:31N 01°17' E 103°56'0 0.0
2015-Jul-19 14:31N 01°17' E 103°56'0 0.0
2015-Jul-19 13:31N 01°17' E 103°56'0 0.0
2015-Jul-19 12:31N 01°17' E 103°56'0 0.0
2015-Jul-19 11:31N 01°17' E 103°56'0 0.1
2015-Jul-19 10:31N 01°17' E 103°56'0 0.1
2015-Jul-19 09:31N 01°17' E 103°56'0 0.0
2015-Jul-19 08:31N 01°17' E 103°56'0 0.1
2015-Jul-19 07:33N 01°17' E 103°56'0 0.1
2015-Jul-19 06:32N 01°17' E 103°57'2 1.5
2015-Jul-19 05:33N 01°16' E 103°57'6 6.1
2015-Jul-19 04:33N 01°12' E 103°53'141 8.7
2015-Jul-18 12:25N 02°16' E 101°47'1412.0
2015-Jul-18 11:13N 02°25' E 101°36'711.3
2015-Jul-18 10:34N 02°30' E 101°30'2211.0
2015-Jul-18 08:33N 02°42' E 101°11'2010.1
2015-Jul-18 06:34N 02°50' E 100°53'28 9.2
2015-Jul-18 03:34N 03°08' E 100°32'  

Dump ship's entire track history